createdAt,value
2018-01-04T00:14:46.355Z,6.97
2018-01-04T00:17:26.025Z,9.77
2018-01-04T00:33:19.156Z,10.68
2018-01-04T00:35:49.540Z,8.52
2018-01-04T00:39:03.336Z,9.63
2018-01-04T01:15:34.405Z,7.82
2018-01-04T01:18:03.963Z,8.60
2018-01-04T01:20:37.105Z,9.73
2018-01-04T01:23:18.714Z,8.25
2018-01-04T02:12:31.543Z,8.68
2018-01-04T02:15:00.836Z,12.05
2018-01-04T02:17:29.316Z,11.07
2018-01-04T02:20:17.516Z,6.70
2018-01-04T04:03:15.755Z,7.32
2018-01-04T04:20:41.418Z,1.87
2018-01-04T04:23:10.412Z,2.25
2018-01-04T04:25:39.409Z,4.15
2018-01-04T04:28:08.398Z,4.05
2018-01-04T04:33:11.886Z,5.65
2018-01-04T04:35:40.133Z,5.32
2018-01-04T04:38:08.402Z,4.90
2018-01-04T04:40:36.679Z,4.12
2018-01-04T04:43:04.922Z,4.18
2018-01-04T04:45:33.884Z,3.62
2018-01-04T04:48:02.137Z,5.47
2018-01-04T04:50:30.390Z,4.87
2018-01-04T04:52:58.725Z,3.05
2018-01-04T04:55:27.788Z,2.65
2018-01-04T04:57:55.988Z,5.57
2018-01-04T05:00:24.968Z,3.95
2018-01-04T05:02:53.181Z,4.45
2018-01-04T05:05:21.423Z,3.35
2018-01-04T05:07:49.687Z,4.47
2018-01-04T05:10:17.978Z,4.07
2018-01-04T05:12:46.240Z,4.28
2018-01-04T05:15:14.465Z,2.15
2018-01-04T05:17:42.745Z,4.12
2018-01-04T05:20:11.740Z,3.85
2018-01-04T05:22:39.974Z,3.28
2018-01-04T05:25:08.973Z,2.85
2018-01-04T05:27:37.944Z,4.47
2018-01-04T05:30:06.127Z,3.30
2018-01-04T05:32:35.079Z,3.37
2018-01-04T05:35:03.398Z,3.70
2018-01-04T05:37:32.396Z,3.65
2018-01-04T05:42:34.749Z,2.55
2018-01-04T05:45:03.149Z,3.30
2018-01-04T05:47:32.185Z,4.62
2018-01-04T05:50:01.187Z,5.37
2018-01-04T05:52:29.427Z,4.82
2018-01-04T05:54:57.619Z,2.95
2018-01-04T05:57:25.848Z,5.03
2018-01-04T05:59:54.839Z,4.68
2018-01-04T06:02:23.060Z,5.45
2018-01-04T06:04:51.269Z,5.05
2018-01-04T06:07:19.449Z,3.80
2018-01-04T06:09:47.661Z,4.00
2018-01-04T06:12:17.373Z,3.30
2018-01-04T06:14:45.604Z,5.12
2018-01-04T06:17:13.820Z,3.80
2018-01-04T06:19:42.051Z,2.33
2018-01-04T06:22:11.015Z,4.50
2018-01-04T06:24:39.985Z,3.65
2018-01-04T06:27:08.234Z,4.20
2018-01-04T06:32:10.651Z,5.35
2018-01-04T06:34:38.865Z,4.10
2018-01-04T06:37:07.075Z,2.97
2018-01-04T06:39:36.028Z,3.58
2018-01-04T06:42:04.279Z,5.07
2018-01-04T06:44:32.585Z,3.62
2018-01-04T06:47:00.850Z,2.35
2018-01-04T06:49:29.033Z,3.83
2018-01-04T06:51:57.251Z,2.65
2018-01-04T06:54:26.255Z,6.90
2018-01-04T06:56:54.454Z,1.80
2018-01-04T06:59:22.658Z,2.28
2018-01-04T07:01:50.877Z,2.45
2018-01-04T07:04:19.113Z,2.70
2018-01-04T07:06:47.356Z,3.53
2018-01-04T07:09:15.566Z,4.60
2018-01-04T07:11:43.789Z,2.58
2018-01-04T07:14:11.980Z,3.22
2018-01-04T07:16:40.984Z,2.22
2018-01-04T07:19:09.295Z,2.55
2018-01-04T07:21:37.591Z,2.87
2018-01-04T07:24:05.784Z,3.33
2018-01-04T07:26:34.064Z,4.53
2018-01-04T07:29:02.296Z,1.98
2018-01-04T07:31:31.248Z,2.05
2018-01-04T07:33:59.439Z,5.78
2018-01-04T07:36:27.660Z,2.47
2018-01-04T07:38:55.838Z,2.97
2018-01-04T07:41:24.069Z,3.78
2018-01-04T07:43:53.082Z,2.58
2018-01-04T07:46:21.264Z,2.33
2018-01-04T07:48:49.493Z,2.28
2018-01-04T07:51:17.688Z,2.80
2018-01-04T07:53:46.637Z,3.17
2018-01-04T07:56:14.836Z,2.95
2018-01-04T07:58:43.064Z,2.62
2018-01-04T08:01:11.311Z,4.70
2018-01-04T08:03:40.273Z,3.90
2018-01-04T08:06:08.507Z,3.97
2018-01-04T08:08:36.725Z,4.18
2018-01-04T08:11:04.970Z,3.80
2018-01-04T08:13:33.182Z,2.03
2018-01-04T08:16:01.394Z,2.87
2018-01-04T08:18:29.720Z,3.17
2018-01-04T08:20:58.241Z,5.12
2018-01-04T08:23:26.582Z,3.53
2018-01-04T08:25:54.794Z,4.32
2018-01-04T08:28:23.040Z,3.67
2018-01-04T08:30:52.013Z,3.45
2018-01-04T08:33:20.322Z,4.50
2018-01-04T08:35:49.534Z,4.28
2018-01-04T08:38:17.762Z,3.25
2018-01-04T08:40:46.069Z,4.45
2018-01-04T08:43:14.427Z,4.82
2018-01-04T08:45:42.867Z,3.05
2018-01-04T08:48:11.144Z,3.00
2018-01-04T08:50:40.929Z,2.50
2018-01-04T08:53:09.189Z,3.83
2018-01-04T08:55:37.449Z,4.82
2018-01-04T08:58:05.645Z,2.47
2018-01-04T09:00:33.887Z,4.32
2018-01-04T09:03:02.135Z,4.50
2018-01-04T09:05:30.379Z,2.92
2018-01-04T09:07:58.636Z,2.90
2018-01-04T09:10:27.704Z,5.10
2018-01-04T09:12:55.906Z,2.70
2018-01-04T09:15:24.995Z,3.60
2018-01-04T09:17:53.185Z,3.78
2018-01-04T09:20:21.466Z,4.12
2018-01-04T09:22:49.725Z,3.10
2018-01-04T09:25:18.707Z,3.67
2018-01-04T09:27:47.651Z,3.00
2018-01-04T09:32:50.294Z,3.45
2018-01-04T09:35:19.295Z,5.37
2018-01-04T09:37:48.265Z,3.25
2018-01-04T09:40:16.515Z,3.85
2018-01-04T09:42:44.722Z,3.62
2018-01-04T09:45:13.262Z,2.47
2018-01-04T09:47:41.619Z,3.62
2018-01-04T09:50:09.821Z,3.58
2018-01-04T09:52:40.077Z,3.20
2018-01-04T09:55:08.372Z,3.55
2018-01-04T09:57:36.561Z,5.47
2018-01-04T10:00:04.729Z,2.75
2018-01-04T10:02:32.953Z,2.75
2018-01-04T10:05:01.264Z,3.83
2018-01-04T10:07:29.422Z,3.40
2018-01-04T10:09:58.408Z,3.95
2018-01-04T10:12:27.345Z,2.45
2018-01-04T10:14:55.503Z,4.00
2018-01-04T10:17:23.740Z,3.40
2018-01-04T10:19:51.925Z,2.10
2018-01-04T10:22:20.903Z,2.30
2018-01-04T10:24:49.162Z,3.28
2018-01-04T10:27:17.350Z,2.87
2018-01-04T10:29:45.528Z,2.85
2018-01-04T10:32:13.748Z,3.53
2018-01-04T10:34:41.979Z,4.70
2018-01-04T10:40:20.118Z,3.28
2018-01-04T10:42:48.356Z,5.00
2018-01-04T10:45:16.630Z,6.05
2018-01-04T10:47:44.873Z,3.47
2018-01-04T10:50:16.094Z,6.85
2018-01-04T10:52:45.093Z,5.93
2018-01-04T10:55:13.533Z,5.47
2018-01-04T10:57:41.915Z,10.85
2018-01-04T11:00:10.211Z,9.15
2018-01-04T11:02:38.426Z,8.50
2018-01-04T11:05:06.690Z,6.50
2018-01-04T11:07:34.918Z,8.18
2018-01-04T11:10:03.252Z,9.20
2018-01-04T11:12:31.550Z,10.63
2018-01-04T11:15:00.744Z,9.52
2018-01-04T11:20:40.792Z,9.70
2018-01-04T11:23:15.921Z,8.90
2018-01-04T11:25:44.193Z,6.95
2018-01-04T11:28:12.640Z,8.32
2018-01-04T11:30:40.965Z,7.72
2018-01-04T11:33:09.300Z,10.82
2018-01-04T11:35:37.505Z,8.20
2018-01-04T11:38:05.764Z,9.60
2018-01-04T11:40:34.451Z,12.20
2018-01-04T11:43:02.738Z,7.40
2018-01-04T11:45:31.055Z,8.02
2018-01-04T11:47:59.416Z,10.98
2018-01-04T11:50:28.527Z,10.80
2018-01-04T11:52:59.830Z,9.35
2018-01-04T11:55:28.174Z,12.30
2018-01-04T11:57:56.416Z,8.82
2018-01-04T12:00:24.743Z,7.12
2018-01-04T12:02:53.240Z,9.85
2018-01-04T12:05:22.235Z,9.25
2018-01-04T12:07:50.452Z,9.05
2018-01-04T12:10:19.166Z,5.90
2018-01-04T12:12:47.533Z,7.32
2018-01-04T12:15:15.801Z,8.98
2018-01-04T12:17:44.064Z,9.05
2018-01-04T12:20:12.280Z,11.45
2018-01-04T12:22:41.168Z,6.75
2018-01-04T12:25:09.418Z,10.18
2018-01-04T12:27:38.443Z,7.50
2018-01-04T12:30:06.679Z,9.00
2018-01-04T12:32:35.021Z,6.15
2018-01-04T12:35:04.428Z,11.32
2018-01-04T12:37:32.697Z,13.90
2018-01-04T12:40:00.911Z,11.52
2018-01-04T12:42:29.284Z,8.57
2018-01-04T12:44:57.535Z,10.23
2018-01-04T12:47:25.867Z,12.43
2018-01-04T12:49:54.353Z,9.23
2018-01-04T12:52:50.153Z,9.43
2018-01-04T12:57:55.467Z,9.10
2018-01-04T13:00:40.988Z,12.65
2018-01-04T13:03:36.667Z,10.13
2018-01-04T13:11:59.822Z,10.13
2018-01-04T13:14:28.195Z,11.38
2018-01-04T13:16:56.555Z,8.85
2018-01-04T13:19:59.960Z,10.30
2018-01-04T13:22:28.330Z,13.55
2018-01-04T13:24:56.556Z,15.57
2018-01-04T13:27:24.830Z,15.52
2018-01-04T13:29:53.038Z,11.77
2018-01-04T13:32:21.251Z,8.73
2018-01-04T13:34:49.443Z,12.40
2018-01-04T13:37:20.336Z,12.55
2018-01-04T13:39:48.563Z,12.30
2018-01-04T13:42:16.769Z,13.68
2018-01-04T13:44:45.026Z,11.45
2018-01-04T13:47:13.765Z,10.50
2018-01-04T13:49:42.013Z,16.95
2018-01-04T13:52:10.303Z,10.55
2018-01-04T13:54:38.510Z,13.48
2018-01-04T13:57:06.751Z,11.63
2018-01-04T13:59:34.959Z,15.00
2018-01-04T14:02:03.939Z,13.57
2018-01-04T14:04:32.897Z,17.98
2018-01-04T14:07:01.173Z,11.00
2018-01-04T14:09:29.460Z,17.73
2018-01-04T14:11:57.756Z,14.95
2018-01-04T14:14:25.997Z,11.50
2018-01-04T14:16:54.224Z,14.80
2018-01-04T14:19:22.480Z,10.82
2018-01-04T14:21:51.499Z,10.00
2018-01-04T14:24:19.832Z,13.27
2018-01-04T14:26:48.041Z,15.93
2018-01-04T14:29:16.260Z,11.43
2018-01-04T14:31:44.643Z,13.25
2018-01-04T14:34:12.861Z,14.30
2018-01-04T14:36:41.907Z,10.75
2018-01-04T14:39:10.145Z,10.32
2018-01-04T14:41:38.365Z,12.37
2018-01-04T14:44:06.939Z,16.23
2018-01-04T14:46:35.178Z,17.67
2018-01-04T14:49:03.439Z,8.68
2018-01-04T14:51:32.407Z,12.77
2018-01-04T14:54:00.662Z,10.23
2018-01-04T14:56:28.962Z,11.48
2018-01-04T14:58:57.180Z,10.45
2018-01-04T15:01:25.512Z,11.77
2018-01-04T15:03:53.947Z,15.80
2018-01-04T15:06:22.171Z,13.50
2018-01-04T15:08:50.394Z,16.30
2018-01-04T15:11:18.675Z,15.00
2018-01-04T15:13:46.977Z,17.58
2018-01-04T15:16:16.471Z,14.87
2018-01-04T15:18:44.753Z,15.40
2018-01-04T15:21:14.038Z,14.10
2018-01-04T15:23:42.421Z,15.43
2018-01-04T15:26:10.857Z,10.82
2018-01-04T15:28:39.193Z,11.02
2018-01-04T15:31:07.559Z,15.20
2018-01-04T15:33:35.767Z,9.68
2018-01-04T15:36:03.992Z,11.07
2018-01-04T15:38:32.224Z,17.23
2018-01-04T15:41:01.428Z,14.52
2018-01-04T15:43:29.842Z,20.67
2018-01-04T15:45:58.066Z,17.90
2018-01-04T15:48:27.977Z,14.52
2018-01-04T15:50:56.302Z,18.35
2018-01-04T15:53:24.577Z,14.87
2018-01-04T15:55:52.994Z,17.12
2018-01-04T15:58:21.306Z,12.95
2018-01-04T16:00:49.604Z,14.13
2018-01-04T16:03:17.863Z,13.82
2018-01-04T16:05:46.200Z,16.27
2018-01-04T16:08:14.420Z,14.95
2018-01-04T16:10:43.380Z,13.80
2018-01-04T16:13:12.398Z,12.95
2018-01-04T16:15:40.669Z,15.77
2018-01-04T16:18:08.874Z,13.57
2018-01-04T16:20:38.190Z,15.45
2018-01-04T16:23:06.592Z,12.80
2018-01-04T16:25:35.651Z,14.98
2018-01-04T16:28:03.998Z,13.75
2018-01-04T16:30:32.255Z,17.95
2018-01-04T16:33:01.402Z,18.73
2018-01-04T16:35:29.655Z,14.50
2018-01-04T16:37:57.934Z,16.42
2018-01-04T16:40:27.099Z,14.55
2018-01-04T16:42:55.365Z,14.93
2018-01-04T16:45:24.428Z,15.00
2018-01-04T16:47:52.704Z,14.52
2018-01-04T16:50:20.950Z,18.65
2018-01-04T16:52:49.220Z,15.63
2018-01-04T16:55:17.423Z,12.20
2018-01-04T16:57:45.783Z,14.82
2018-01-04T17:00:14.052Z,10.95
2018-01-04T17:02:42.316Z,15.10
2018-01-04T17:05:10.630Z,14.95
2018-01-04T17:07:39.844Z,15.65
2018-01-04T17:10:08.950Z,15.30
2018-01-04T17:12:39.121Z,17.15
2018-01-04T17:15:07.412Z,16.17
2018-01-04T17:17:35.666Z,18.50
2018-01-04T17:20:03.946Z,18.60
2018-01-04T17:22:32.321Z,15.82
2018-01-04T17:25:00.555Z,17.15
2018-01-04T17:27:29.148Z,17.80
2018-01-04T17:29:58.224Z,15.23
2018-01-04T17:32:26.505Z,13.52
2018-01-04T17:34:54.837Z,14.40
2018-01-04T17:37:23.047Z,15.85
2018-01-04T17:39:51.299Z,18.42
2018-01-04T17:42:19.755Z,15.00
2018-01-04T17:44:48.054Z,15.38
2018-01-04T17:47:16.335Z,17.60
2018-01-04T17:49:44.936Z,18.33
2018-01-04T17:52:13.453Z,18.87
2018-01-04T17:54:41.845Z,20.98
2018-01-04T17:57:10.160Z,13.48
2018-01-04T17:59:38.448Z,16.75
2018-01-04T18:02:07.497Z,16.25
2018-01-04T18:04:35.900Z,15.05
2018-01-04T18:07:04.359Z,16.35
2018-01-04T18:09:33.288Z,14.48
2018-01-04T18:12:02.359Z,20.00
2018-01-04T18:14:30.583Z,16.60
2018-01-04T18:16:59.705Z,19.75
2018-01-04T18:19:28.000Z,17.40
2018-01-04T18:21:56.308Z,17.15
2018-01-04T18:24:25.371Z,15.15
2018-01-04T18:26:53.588Z,16.25
2018-01-04T18:29:22.018Z,12.57
2018-01-04T18:31:50.258Z,18.25
2018-01-04T18:34:20.137Z,14.07
2018-01-04T18:36:50.124Z,14.48
2018-01-04T18:39:18.378Z,13.43
2018-01-04T18:41:46.783Z,16.60
2018-01-04T18:44:15.220Z,19.33
2018-01-04T18:46:43.583Z,17.27
2018-01-04T18:49:15.855Z,15.82
2018-01-04T18:51:44.148Z,14.10
2018-01-04T18:54:13.460Z,17.67
2018-01-04T18:56:42.499Z,15.45
2018-01-04T18:59:11.540Z,15.55
2018-01-04T19:01:39.918Z,39.35
2018-01-04T19:04:08.275Z,38.60
2018-01-04T19:06:38.878Z,35.53
2018-01-04T19:09:08.629Z,27.62
2018-01-04T19:11:36.911Z,29.45
2018-01-04T19:14:05.177Z,21.27
2018-01-04T19:16:33.419Z,20.90
2018-01-04T19:19:02.613Z,23.98
2018-01-04T19:21:31.686Z,21.50
2018-01-04T19:23:59.969Z,18.05
2018-01-04T19:26:28.260Z,20.12
2018-01-04T19:28:58.892Z,17.45
2018-01-04T19:31:27.337Z,22.55
2018-01-04T19:33:55.730Z,18.30
2018-01-04T19:36:24.154Z,19.35
2018-01-04T19:38:52.563Z,15.25
2018-01-04T19:41:21.933Z,15.30
2018-01-04T19:43:51.507Z,18.77
2018-01-04T19:46:21.839Z,13.48
2018-01-04T19:48:50.268Z,16.00
2018-01-04T19:51:18.742Z,13.80
2018-01-04T19:53:48.828Z,18.58
2018-01-04T19:56:17.165Z,13.45
2018-01-04T19:58:45.598Z,11.25
2018-01-04T20:01:15.967Z,14.30
2018-01-04T20:03:45.069Z,13.88
2018-01-04T20:06:13.751Z,11.23
2018-01-04T20:08:42.165Z,17.05
2018-01-04T20:11:11.256Z,17.05
2018-01-04T20:13:39.606Z,14.57
2018-01-04T20:16:08.770Z,12.30
2018-01-04T20:18:37.202Z,13.70
2018-01-04T20:21:06.310Z,11.50
2018-01-04T20:23:34.869Z,12.52
2018-01-04T20:26:03.956Z,13.18
2018-01-04T20:28:33.011Z,14.82
2018-01-04T20:31:01.295Z,10.13
2018-01-04T20:33:29.556Z,13.15
2018-01-04T20:35:58.625Z,12.05
2018-01-04T20:38:26.914Z,11.55
2018-01-04T20:40:56.639Z,12.50
2018-01-04T20:43:25.481Z,17.50
2018-01-04T20:45:54.703Z,13.52
2018-01-04T20:48:23.044Z,10.88
2018-01-04T20:50:52.693Z,11.05
2018-01-04T20:53:21.136Z,9.40
2018-01-04T20:55:50.153Z,11.52
2018-01-04T20:58:18.650Z,16.48
2018-01-04T21:00:46.923Z,12.77
2018-01-04T21:03:15.234Z,10.85
2018-01-04T21:05:43.665Z,11.02
2018-01-04T21:08:12.356Z,9.30
2018-01-04T21:10:41.802Z,10.00
2018-01-04T21:13:10.963Z,9.27
2018-01-04T21:15:41.320Z,8.15
2018-01-04T21:18:09.744Z,9.93
2018-01-04T21:20:38.350Z,7.37
2018-01-04T21:23:06.706Z,15.52
2018-01-04T21:25:35.892Z,10.18
2018-01-04T21:28:06.160Z,13.55
2018-01-04T21:30:40.183Z,12.73
2018-01-04T21:33:10.928Z,8.43
2018-01-04T21:35:39.287Z,9.88
2018-01-04T21:38:07.562Z,8.70
2018-01-04T21:40:36.620Z,11.75
2018-01-04T21:43:05.282Z,7.07
2018-01-04T21:45:36.034Z,9.70
2018-01-04T21:48:04.431Z,7.85
2018-01-04T21:50:32.679Z,9.38
2018-01-04T21:53:01.793Z,14.55
2018-01-04T21:55:30.112Z,8.20
2018-01-04T21:57:58.372Z,7.87
2018-01-04T22:00:26.704Z,9.15
2018-01-04T22:02:55.893Z,9.15
2018-01-04T22:05:24.592Z,9.60
2018-01-04T22:07:52.919Z,11.20
2018-01-04T22:10:21.394Z,8.98
2018-01-04T22:12:49.673Z,8.98
2018-01-04T22:15:17.943Z,6.97
2018-01-04T22:17:46.219Z,6.70
2018-01-04T22:20:14.582Z,7.12
2018-01-04T22:22:42.927Z,5.93
2018-01-04T22:25:11.351Z,8.50
2018-01-04T22:27:39.755Z,7.35
2018-01-04T22:30:16.106Z,6.82
2018-01-04T22:32:45.402Z,6.62
2018-01-04T22:35:13.664Z,9.82
2018-01-04T22:37:41.937Z,5.32
2018-01-04T22:40:56.068Z,6.22
2018-01-04T22:43:47.776Z,5.82
2018-01-04T22:46:34.840Z,5.90
2018-01-04T22:49:05.282Z,7.20
2018-01-04T22:51:35.472Z,7.18
2018-01-04T22:54:34.754Z,10.93
2018-01-04T22:57:04.116Z,6.25
2018-01-04T22:59:33.465Z,5.72
2018-01-04T23:02:02.904Z,7.25
2018-01-04T23:04:53.188Z,9.60
2018-01-04T23:07:25.058Z,6.37
2018-01-04T23:10:29.219Z,7.15
2018-01-04T23:16:03.469Z,6.53
2018-01-04T23:18:43.937Z,8.25
2018-01-04T23:21:16.192Z,7.75
2018-01-04T23:23:53.905Z,9.63
2018-01-04T23:26:31.916Z,9.23
2018-01-04T23:29:30.643Z,10.13
2018-01-04T23:32:13.688Z,9.65
2018-01-04T23:34:55.011Z,7.85
2018-01-04T23:37:35.029Z,9.15
2018-01-04T23:40:31.975Z,8.45
2018-01-04T23:43:40.290Z,7.82
2018-01-04T23:46:30.217Z,5.90
2018-01-04T23:49:11.352Z,7.00
2018-01-04T23:51:53.141Z,7.05
2018-01-04T23:54:22.624Z,6.50
2018-01-04T23:56:51.119Z,12.15
2018-01-04T23:59:19.572Z,7.20
